createdAt,value
2019-01-14T00:01:14.916Z,31.77
2019-01-14T00:03:47.014Z,28.20
2019-01-14T00:06:19.269Z,28.67
2019-01-14T00:08:51.325Z,28.00
2019-01-14T00:11:25.286Z,28.80
2019-01-14T00:13:57.554Z,28.07
2019-01-14T00:16:30.177Z,27.00
2019-01-14T00:19:02.290Z,28.87
2019-01-14T00:21:34.930Z,28.10
2019-01-14T00:24:07.046Z,26.48
2019-01-14T00:26:39.721Z,25.77
2019-01-14T00:29:12.551Z,25.15
2019-01-14T00:31:45.052Z,23.67
2019-01-14T00:34:18.207Z,24.90
2019-01-14T00:36:50.788Z,25.00
2019-01-14T00:39:22.924Z,25.10
2019-01-14T00:41:55.162Z,24.02
2019-01-14T00:44:27.467Z,23.77
2019-01-14T00:47:00.093Z,23.73
2019-01-14T00:49:32.221Z,22.00
2019-01-14T00:52:04.553Z,20.25
2019-01-14T00:54:37.298Z,20.50
2019-01-14T00:57:09.381Z,21.97
2019-01-14T00:59:41.938Z,23.67
2019-01-14T01:02:14.198Z,20.88
2019-01-14T01:04:46.484Z,19.92
2019-01-14T01:07:18.803Z,18.55
2019-01-14T01:09:51.418Z,19.80
2019-01-14T01:12:23.463Z,20.23
2019-01-14T01:14:55.587Z,19.77
2019-01-14T01:17:27.807Z,18.85
2019-01-14T01:20:00.299Z,18.32
2019-01-14T01:22:32.641Z,18.17
2019-01-14T01:25:04.896Z,20.60
2019-01-14T01:27:39.448Z,19.98
2019-01-14T01:30:16.960Z,26.40
2019-01-14T01:32:50.202Z,19.75
2019-01-14T01:35:24.473Z,18.65
2019-01-14T01:37:57.919Z,18.20
2019-01-14T01:40:30.704Z,17.67
2019-01-14T01:43:03.455Z,21.07
2019-01-14T01:45:35.601Z,18.35
2019-01-14T01:48:07.771Z,18.57
2019-01-14T01:50:40.224Z,18.65
2019-01-14T01:53:12.462Z,19.90
2019-01-14T01:55:44.915Z,18.27
2019-01-14T01:58:17.035Z,16.95
2019-01-14T02:00:49.575Z,15.55
2019-01-14T02:03:21.661Z,14.53
2019-01-14T02:05:53.814Z,13.62
2019-01-14T02:08:26.207Z,13.43
2019-01-14T02:10:58.621Z,13.70
2019-01-14T02:13:31.209Z,14.83
2019-01-14T02:16:03.304Z,12.68
2019-01-14T02:18:35.841Z,15.65
2019-01-14T02:21:08.095Z,12.78
2019-01-14T02:23:40.879Z,12.37
2019-01-14T02:26:12.990Z,13.28
2019-01-14T02:28:45.809Z,12.07
2019-01-14T02:31:18.070Z,12.05
2019-01-14T02:33:50.693Z,11.33
2019-01-14T02:36:22.886Z,10.72
2019-01-14T02:38:55.122Z,12.20
2019-01-14T02:41:27.384Z,10.72
2019-01-14T02:44:00.018Z,10.00
2019-01-14T02:46:32.302Z,8.88
2019-01-14T02:49:05.028Z,8.63
2019-01-14T02:51:38.671Z,7.92
2019-01-14T02:57:18.489Z,8.28
2019-01-14T02:59:51.682Z,9.38
2019-01-14T03:02:24.587Z,9.90
2019-01-14T03:04:57.211Z,8.83
2019-01-14T03:07:29.918Z,8.00
2019-01-14T03:10:02.237Z,9.43
2019-01-14T03:12:34.376Z,7.35
2019-01-14T03:15:09.148Z,6.40
2019-01-14T03:17:41.695Z,7.92
2019-01-14T03:20:17.190Z,8.35
2019-01-14T03:22:50.915Z,10.18
2019-01-14T03:25:23.450Z,8.23
2019-01-14T03:27:55.556Z,9.10
2019-01-14T03:30:27.804Z,7.00
2019-01-14T03:32:59.954Z,8.00
2019-01-14T03:35:32.068Z,8.80
2019-01-14T03:38:04.417Z,7.65
2019-01-14T03:40:37.000Z,7.00
2019-01-14T03:43:09.259Z,7.62
2019-01-14T03:45:41.837Z,7.47
2019-01-14T03:48:14.227Z,7.10
2019-01-14T03:50:47.117Z,12.25
2019-01-14T03:53:19.463Z,7.55
2019-01-14T03:55:51.418Z,7.20
2019-01-14T03:58:23.896Z,7.72
2019-01-14T04:00:56.059Z,7.10
2019-01-14T04:03:28.229Z,7.45
2019-01-14T04:06:00.860Z,7.15
2019-01-14T04:08:33.053Z,7.60
2019-01-14T04:11:05.886Z,7.55
2019-01-14T04:13:38.306Z,6.58
2019-01-14T04:16:10.507Z,6.78
2019-01-14T04:18:42.975Z,7.00
2019-01-14T04:21:16.449Z,6.85
2019-01-14T04:23:49.190Z,7.53
2019-01-14T04:26:21.561Z,7.30
2019-01-14T04:28:53.895Z,7.22
2019-01-14T04:31:26.540Z,7.45
2019-01-14T04:34:00.014Z,7.12
2019-01-14T04:36:32.352Z,7.10
2019-01-14T04:39:05.983Z,8.30
2019-01-14T04:41:38.313Z,7.10
2019-01-14T04:44:10.856Z,6.97
2019-01-14T04:46:43.100Z,7.58
2019-01-14T04:49:15.425Z,6.97
2019-01-14T04:51:51.431Z,7.62
2019-01-14T04:54:25.794Z,6.85
2019-01-14T04:56:57.911Z,7.85
2019-01-14T04:59:29.951Z,7.53
2019-01-14T05:02:02.077Z,6.50
2019-01-14T05:04:34.586Z,7.75
2019-01-14T05:07:06.657Z,6.55
2019-01-14T05:09:38.840Z,6.92
2019-01-14T05:12:10.875Z,7.53
2019-01-14T05:14:43.037Z,7.28
2019-01-14T05:17:15.129Z,7.55
2019-01-14T05:19:47.595Z,6.83
2019-01-14T05:22:19.882Z,6.67
2019-01-14T05:24:52.120Z,7.45
2019-01-14T05:27:24.540Z,6.87
2019-01-14T05:29:56.890Z,7.28
2019-01-14T05:32:29.288Z,7.03
2019-01-14T05:35:01.769Z,7.70
2019-01-14T05:37:37.579Z,7.08
2019-01-14T05:40:09.790Z,7.08
2019-01-14T05:42:41.730Z,6.97
2019-01-14T05:45:14.388Z,6.65
2019-01-14T05:47:46.899Z,6.55
2019-01-14T05:50:19.101Z,7.10
2019-01-14T05:52:51.609Z,7.33
2019-01-14T05:55:23.697Z,6.33
2019-01-14T05:57:56.804Z,6.83
2019-01-14T06:00:32.770Z,6.62
2019-01-14T06:03:05.090Z,6.75
2019-01-14T06:05:37.308Z,6.80
2019-01-14T06:08:09.828Z,6.65
2019-01-14T06:10:42.089Z,6.75
2019-01-14T06:13:14.328Z,6.60
2019-01-14T06:15:46.373Z,7.97
2019-01-14T06:18:19.371Z,8.05
2019-01-14T06:20:51.719Z,6.47
2019-01-14T06:23:23.958Z,7.90
2019-01-14T06:25:56.041Z,8.25
2019-01-14T06:28:28.808Z,9.23
2019-01-14T06:31:00.872Z,6.78
2019-01-14T06:33:33.540Z,9.60
2019-01-14T06:36:06.044Z,8.05
2019-01-14T06:38:38.196Z,7.22
2019-01-14T06:41:10.322Z,7.50
2019-01-14T06:43:42.582Z,7.45
2019-01-14T06:46:14.817Z,8.10
2019-01-14T06:48:47.229Z,8.65
2019-01-14T06:51:19.512Z,7.97
2019-01-14T06:53:51.653Z,7.72
2019-01-14T06:56:23.787Z,9.43
2019-01-14T06:58:55.894Z,8.40
2019-01-14T07:01:28.684Z,8.88
2019-01-14T07:04:01.096Z,8.38
2019-01-14T07:06:33.528Z,8.33
2019-01-14T07:09:07.898Z,8.85
2019-01-14T07:11:41.052Z,8.15
2019-01-14T07:14:13.296Z,8.23
2019-01-14T07:16:45.522Z,7.70
2019-01-14T07:19:17.783Z,8.48
2019-01-14T07:21:50.258Z,8.85
2019-01-14T07:24:22.427Z,7.95
2019-01-14T07:26:54.818Z,8.85
2019-01-14T07:29:27.228Z,8.73
2019-01-14T07:32:00.227Z,8.70
2019-01-14T07:34:38.730Z,9.10
2019-01-14T07:37:11.065Z,8.58
2019-01-14T07:39:43.794Z,8.30
2019-01-14T07:42:15.996Z,8.55
2019-01-14T07:44:48.326Z,8.78
2019-01-14T07:47:20.780Z,8.73
2019-01-14T07:49:54.337Z,8.78
2019-01-14T07:52:26.437Z,8.48
2019-01-14T07:54:58.759Z,9.13
2019-01-14T07:57:30.817Z,10.28
2019-01-14T08:00:03.250Z,8.63
2019-01-14T08:02:36.175Z,8.65
2019-01-14T08:05:08.853Z,9.13
2019-01-14T08:07:41.109Z,8.90
2019-01-14T08:10:13.797Z,8.48
2019-01-14T08:12:46.096Z,8.60
2019-01-14T08:15:20.406Z,9.38
2019-01-14T08:17:52.582Z,9.50
2019-01-14T08:20:24.966Z,8.80
2019-01-14T08:22:57.038Z,9.53
2019-01-14T08:25:29.610Z,8.95
2019-01-14T08:28:01.661Z,16.10
2019-01-14T08:30:33.884Z,8.65
2019-01-14T08:33:06.341Z,12.05
2019-01-14T08:35:38.930Z,8.53
2019-01-14T08:38:11.467Z,8.43
2019-01-14T08:40:43.961Z,8.35
2019-01-14T08:43:16.404Z,9.00
2019-01-14T08:45:49.310Z,9.93
2019-01-14T08:48:21.732Z,9.95
2019-01-14T08:50:54.219Z,10.28
2019-01-14T08:53:27.055Z,9.43
2019-01-14T08:55:59.360Z,9.50
2019-01-14T08:58:31.395Z,9.75
2019-01-14T09:01:03.688Z,9.78
2019-01-14T09:03:35.926Z,9.48
2019-01-14T09:06:08.561Z,9.20
2019-01-14T09:08:40.928Z,10.93
2019-01-14T09:11:13.365Z,9.48
2019-01-14T09:13:45.554Z,9.25
2019-01-14T09:16:18.066Z,8.73
2019-01-14T09:18:51.243Z,8.95
2019-01-14T09:21:23.585Z,8.90
2019-01-14T09:23:56.518Z,9.25
2019-01-14T09:26:28.500Z,9.28
2019-01-14T09:29:01.086Z,9.40
2019-01-14T09:31:34.578Z,9.13
2019-01-14T09:34:07.851Z,8.93
2019-01-14T09:36:40.089Z,9.38
2019-01-14T09:39:12.657Z,8.70
2019-01-14T09:41:45.728Z,9.33
2019-01-14T09:44:17.911Z,9.25
2019-01-14T09:46:50.214Z,19.87
2019-01-14T09:49:22.660Z,13.03
2019-01-14T09:51:55.023Z,9.25
2019-01-14T09:54:27.506Z,9.48
2019-01-14T09:56:59.851Z,10.03
2019-01-14T09:59:33.300Z,19.85
2019-01-14T10:02:05.574Z,10.98
2019-01-14T10:04:38.101Z,10.25
2019-01-14T10:07:10.604Z,12.28
2019-01-14T10:09:43.170Z,11.63
2019-01-14T10:12:15.750Z,11.80
2019-01-14T10:14:48.833Z,11.63
2019-01-14T10:17:22.143Z,11.55
2019-01-14T10:19:55.288Z,11.20
2019-01-14T10:22:27.440Z,12.15
2019-01-14T10:24:59.890Z,12.85
2019-01-14T10:27:32.260Z,12.73
2019-01-14T10:30:04.663Z,12.53
2019-01-14T10:32:38.306Z,11.68
2019-01-14T10:35:11.746Z,11.85
2019-01-14T10:37:44.173Z,12.78
2019-01-14T10:40:20.164Z,14.50
2019-01-14T10:42:53.129Z,12.95
2019-01-14T10:45:26.011Z,12.07
2019-01-14T10:47:58.588Z,11.00
2019-01-14T10:50:31.577Z,12.45
2019-01-14T10:53:04.265Z,14.65
2019-01-14T10:55:37.267Z,12.73
2019-01-14T10:58:09.556Z,12.13
2019-01-14T11:00:42.143Z,12.78
2019-01-14T11:03:14.588Z,12.60
2019-01-14T11:05:46.825Z,12.85
2019-01-14T11:08:18.985Z,13.25
2019-01-14T11:10:51.403Z,13.50
2019-01-14T11:13:23.871Z,13.65
2019-01-14T11:15:57.234Z,13.95
2019-01-14T11:18:29.420Z,14.18
2019-01-14T11:21:01.843Z,15.35
2019-01-14T11:23:34.105Z,13.98
2019-01-14T11:26:06.622Z,14.00
2019-01-14T11:28:38.823Z,15.08
2019-01-14T11:31:11.016Z,19.87
2019-01-14T11:33:43.990Z,28.25
2019-01-14T11:36:16.650Z,26.75
2019-01-14T11:38:50.165Z,29.77
2019-01-14T11:41:22.877Z,32.25
2019-01-14T11:43:54.990Z,30.05
2019-01-14T11:46:27.473Z,27.85
2019-01-14T11:48:59.870Z,30.05
2019-01-14T11:51:31.941Z,28.90
2019-01-14T11:54:04.107Z,27.20
2019-01-14T11:56:37.076Z,26.42
2019-01-14T11:59:09.170Z,24.27
2019-01-14T12:01:41.698Z,25.57
2019-01-14T12:04:14.211Z,22.17
2019-01-14T12:06:46.718Z,23.02
2019-01-14T12:09:18.978Z,23.70
2019-01-14T12:11:51.515Z,23.38
2019-01-14T12:14:24.782Z,24.55
2019-01-14T12:16:57.069Z,24.40
2019-01-14T12:19:29.384Z,23.32
2019-01-14T12:22:01.671Z,23.52
2019-01-14T12:24:34.202Z,23.75
2019-01-14T12:27:06.610Z,24.40
2019-01-14T12:29:39.457Z,23.60
2019-01-14T12:32:12.040Z,24.77
2019-01-14T12:34:44.206Z,24.23
2019-01-14T12:37:16.688Z,24.18
2019-01-14T12:39:48.764Z,24.07
2019-01-14T12:42:21.393Z,24.10
2019-01-14T12:44:53.720Z,25.10
2019-01-14T12:47:26.342Z,26.10
2019-01-14T12:49:58.487Z,24.18
2019-01-14T12:52:30.537Z,24.43
2019-01-14T12:55:02.709Z,24.72
2019-01-14T12:57:35.102Z,27.22
2019-01-14T13:00:09.753Z,30.20
2019-01-14T13:02:43.136Z,28.23
2019-01-14T13:05:16.064Z,25.82
2019-01-14T13:07:48.761Z,27.55
2019-01-14T13:10:21.104Z,27.77
2019-01-14T13:12:53.472Z,27.73
2019-01-14T13:15:35.989Z,27.02
2019-01-14T13:18:08.578Z,27.77
2019-01-14T13:20:40.725Z,26.97
2019-01-14T13:23:12.928Z,27.45
2019-01-14T13:25:45.068Z,26.77
2019-01-14T13:28:17.516Z,27.98
2019-01-14T13:30:50.175Z,27.90
2019-01-14T13:33:22.306Z,28.92
2019-01-14T13:35:55.664Z,29.32
2019-01-14T13:38:27.741Z,43.35
2019-01-14T13:41:00.124Z,37.45
2019-01-14T13:43:32.344Z,30.65
2019-01-14T13:46:04.731Z,28.92
2019-01-14T13:48:37.007Z,28.42
2019-01-14T13:51:09.807Z,26.90
2019-01-14T13:53:42.074Z,26.80
2019-01-14T13:56:14.584Z,28.50
2019-01-14T13:58:46.967Z,32.10
2019-01-14T14:01:19.711Z,33.75
2019-01-14T14:03:52.164Z,34.90
2019-01-14T14:06:24.649Z,34.53
2019-01-14T14:08:56.819Z,36.53
2019-01-14T14:11:28.862Z,57.88
2019-01-14T14:14:01.211Z,93.37
2019-01-14T14:16:33.380Z,121.85
2019-01-14T14:19:05.666Z,174.77
2019-01-14T14:21:37.992Z,99.35
2019-01-14T14:24:10.260Z,91.53
2019-01-14T14:26:42.706Z,80.67
2019-01-14T14:29:15.455Z,66.77
2019-01-14T14:31:47.784Z,64.25
2019-01-14T14:34:20.343Z,64.30
2019-01-14T14:36:52.747Z,62.33
2019-01-14T14:39:25.105Z,72.85
2019-01-14T14:41:57.312Z,74.67
2019-01-14T14:44:29.252Z,53.90
2019-01-14T14:47:01.792Z,52.17
2019-01-14T14:49:33.755Z,58.90
2019-01-14T14:52:06.233Z,78.80
2019-01-14T14:54:38.635Z,80.62
2019-01-14T14:57:11.137Z,92.00
2019-01-14T14:59:43.443Z,94.03
2019-01-14T15:02:16.579Z,106.05
2019-01-14T15:04:51.196Z,99.67
2019-01-14T15:07:36.888Z,84.13
2019-01-14T15:10:11.627Z,79.35
2019-01-14T15:12:44.092Z,64.67
2019-01-14T15:15:17.725Z,37.85
2019-01-14T15:17:50.183Z,283.90
2019-01-14T15:20:23.858Z,40.92
2019-01-14T15:22:57.681Z,37.93
2019-01-14T15:25:30.306Z,46.73
2019-01-14T15:28:02.775Z,42.78
2019-01-14T15:30:35.199Z,45.48
2019-01-14T15:33:19.857Z,42.53
2019-01-14T15:35:52.291Z,40.67
2019-01-14T15:38:24.368Z,41.35
2019-01-14T15:40:56.531Z,37.40
2019-01-14T15:43:28.504Z,41.37
2019-01-14T15:46:01.114Z,45.95
2019-01-14T15:48:34.652Z,44.53
2019-01-14T15:51:07.584Z,41.98
2019-01-14T15:53:39.630Z,44.53
2019-01-14T15:56:11.723Z,40.40
2019-01-14T15:58:44.437Z,38.33
2019-01-14T16:01:16.626Z,38.55
2019-01-14T16:03:48.868Z,40.38
2019-01-14T16:06:21.263Z,39.98
2019-01-14T16:08:53.305Z,39.35
2019-01-14T16:11:25.508Z,41.73
2019-01-14T16:13:57.763Z,38.70
2019-01-14T16:16:30.054Z,41.10
2019-01-14T16:19:02.204Z,45.25
2019-01-14T16:21:34.390Z,45.98
2019-01-14T16:24:06.762Z,42.23
2019-01-14T16:26:39.590Z,44.27
2019-01-14T16:29:12.319Z,43.73
2019-01-14T16:31:44.931Z,44.00
2019-01-14T16:34:16.945Z,42.78
2019-01-14T16:36:49.378Z,42.98
2019-01-14T16:39:21.497Z,46.23
2019-01-14T16:41:54.452Z,51.42
2019-01-14T16:44:26.684Z,56.13
2019-01-14T16:46:58.826Z,51.28
2019-01-14T16:49:31.003Z,55.95
2019-01-14T16:52:03.668Z,51.55
2019-01-14T16:54:35.780Z,81.10
2019-01-14T16:57:08.326Z,63.23
2019-01-14T16:59:41.397Z,61.58
2019-01-14T17:02:14.104Z,60.70
2019-01-14T17:04:46.439Z,68.92
2019-01-14T17:07:18.743Z,67.67
2019-01-14T17:09:51.228Z,66.20
2019-01-14T17:12:23.485Z,70.10
2019-01-14T17:14:55.804Z,65.47
2019-01-14T17:17:29.477Z,72.30
2019-01-14T17:20:01.819Z,68.57
2019-01-14T17:22:34.390Z,67.00
2019-01-14T17:25:07.843Z,65.47
2019-01-14T17:27:40.413Z,67.87
2019-01-14T17:30:15.238Z,61.63
2019-01-14T17:32:47.713Z,58.40
2019-01-14T17:35:20.610Z,58.87
2019-01-14T17:37:53.302Z,55.43
2019-01-14T17:40:32.308Z,55.28
2019-01-14T17:42:59.554Z,55.75
2019-01-14T17:45:31.644Z,54.98
2019-01-14T17:48:03.825Z,52.40
2019-01-14T17:50:36.101Z,50.40
2019-01-14T17:53:08.925Z,47.70
2019-01-14T17:55:41.279Z,49.27
2019-01-14T17:58:13.489Z,49.93
2019-01-14T18:00:45.756Z,50.10
2019-01-14T18:03:18.244Z,49.38
2019-01-14T18:05:50.395Z,48.73
2019-01-14T18:08:22.931Z,49.10
2019-01-14T18:11:01.524Z,50.48
2019-01-14T18:13:29.064Z,50.55
2019-01-14T18:16:01.298Z,48.73
2019-01-14T18:18:34.041Z,50.98
2019-01-14T18:21:13.298Z,50.73
2019-01-14T18:23:40.384Z,52.45
2019-01-14T18:26:12.736Z,52.58
2019-01-14T18:28:45.126Z,52.67
2019-01-14T18:31:17.501Z,50.10
2019-01-14T18:33:49.988Z,49.80
2019-01-14T18:36:22.863Z,49.75
2019-01-14T18:38:55.309Z,48.55
2019-01-14T18:41:27.711Z,43.15
2019-01-14T18:43:59.899Z,41.23
2019-01-14T18:46:32.390Z,42.03
2019-01-14T18:49:04.700Z,40.58
2019-01-14T18:51:37.189Z,35.52
2019-01-14T18:54:09.722Z,34.27
2019-01-14T18:56:41.920Z,29.90
2019-01-14T18:59:13.954Z,28.70
2019-01-14T19:01:46.381Z,28.00
2019-01-14T19:04:18.894Z,27.52
2019-01-14T19:06:51.050Z,25.50
2019-01-14T19:09:24.012Z,25.02
2019-01-14T19:11:56.778Z,24.27
2019-01-14T19:14:28.970Z,23.12
2019-01-14T19:17:01.432Z,24.07
2019-01-14T19:19:34.115Z,24.20
2019-01-14T19:22:06.435Z,22.30
2019-01-14T19:24:38.495Z,23.38
2019-01-14T19:27:16.410Z,22.37
2019-01-14T19:29:44.897Z,22.98
2019-01-14T19:32:17.276Z,22.65
2019-01-14T19:34:50.114Z,22.87
2019-01-14T19:37:22.777Z,22.67
2019-01-14T19:39:54.942Z,22.55
2019-01-14T19:42:27.112Z,22.93
2019-01-14T19:44:59.817Z,22.30
2019-01-14T19:47:32.378Z,21.20
2019-01-14T19:50:04.882Z,22.20
2019-01-14T19:52:37.062Z,21.35
2019-01-14T19:55:09.701Z,22.50
2019-01-14T19:57:41.963Z,21.45
2019-01-14T20:00:17.195Z,20.72
2019-01-14T20:02:49.678Z,22.50
2019-01-14T20:05:22.030Z,21.55
2019-01-14T20:07:54.747Z,21.80
2019-01-14T20:10:27.309Z,21.75
2019-01-14T20:12:59.718Z,21.35
2019-01-14T20:15:32.158Z,20.82
2019-01-14T20:18:04.378Z,20.15
2019-01-14T20:20:36.461Z,19.90
2019-01-14T20:23:08.662Z,20.48
2019-01-14T20:25:41.240Z,21.20
2019-01-14T20:28:13.502Z,21.52
2019-01-14T20:30:46.307Z,20.17
2019-01-14T20:33:19.672Z,20.08
2019-01-14T20:35:52.263Z,20.60
2019-01-14T20:38:24.401Z,20.17
2019-01-14T20:40:56.989Z,20.30
2019-01-14T20:43:30.166Z,22.55
2019-01-14T20:46:02.786Z,20.95
2019-01-14T20:48:35.142Z,19.85
2019-01-14T20:51:07.755Z,20.35
2019-01-14T20:53:40.030Z,19.67
2019-01-14T20:56:12.244Z,19.07
2019-01-14T20:58:45.076Z,21.87
2019-01-14T21:01:17.230Z,20.55
2019-01-14T21:03:49.807Z,21.42
2019-01-14T21:06:22.470Z,18.55
2019-01-14T21:08:55.173Z,17.80
2019-01-14T21:11:27.248Z,18.42
2019-01-14T21:13:59.676Z,17.45
2019-01-14T21:16:31.939Z,16.97
2019-01-14T21:19:04.443Z,17.95
2019-01-14T21:21:36.616Z,18.77
2019-01-14T21:24:08.722Z,17.05
2019-01-14T21:26:40.885Z,17.48
2019-01-14T21:29:14.028Z,17.55
2019-01-14T21:31:46.407Z,17.57
2019-01-14T21:34:18.659Z,16.80
2019-01-14T21:36:51.292Z,16.65
2019-01-14T21:39:24.100Z,16.67
2019-01-14T21:41:56.357Z,16.32
2019-01-14T21:44:28.318Z,16.90
2019-01-14T21:47:00.858Z,16.23
2019-01-14T21:49:33.032Z,17.12
2019-01-14T21:52:05.306Z,16.25
2019-01-14T21:54:37.429Z,16.65
2019-01-14T21:57:09.908Z,15.88
2019-01-14T21:59:42.291Z,16.57
2019-01-14T22:02:14.976Z,16.15
2019-01-14T22:04:47.739Z,16.12
2019-01-14T22:07:19.945Z,16.55
2019-01-14T22:09:52.420Z,16.12
2019-01-14T22:12:25.217Z,16.10
2019-01-14T22:14:57.499Z,15.75
2019-01-14T22:17:29.896Z,15.70
2019-01-14T22:20:01.330Z,15.38
2019-01-14T22:22:33.851Z,16.20
2019-01-14T22:25:07.556Z,15.65
2019-01-14T22:27:39.809Z,16.32
2019-01-14T22:30:14.690Z,15.68
2019-01-14T22:32:47.139Z,17.35
2019-01-14T22:35:19.438Z,17.35
2019-01-14T22:37:52.406Z,18.00
2019-01-14T22:40:24.646Z,17.30
2019-01-14T22:42:57.025Z,18.67
2019-01-14T22:45:29.712Z,18.15
2019-01-14T22:48:02.261Z,17.60
2019-01-14T22:50:34.460Z,17.65
2019-01-14T22:53:06.914Z,22.00
2019-01-14T22:55:39.553Z,21.57
2019-01-14T22:58:11.709Z,23.32
2019-01-14T23:00:47.739Z,23.83
2019-01-14T23:03:21.475Z,24.70
2019-01-14T23:05:53.816Z,22.75
2019-01-14T23:08:26.250Z,21.35
2019-01-14T23:11:10.601Z,21.82
2019-01-14T23:13:42.878Z,22.50
2019-01-14T23:16:15.219Z,21.87
2019-01-14T23:18:47.717Z,20.20
2019-01-14T23:21:20.314Z,19.67
2019-01-14T23:23:52.897Z,20.02
2019-01-14T23:26:25.251Z,20.08
2019-01-14T23:28:57.500Z,19.60
2019-01-14T23:31:30.801Z,19.27
2019-01-14T23:34:03.041Z,20.35
2019-01-14T23:36:35.297Z,20.30
2019-01-14T23:39:09.795Z,18.23
2019-01-14T23:41:41.914Z,18.30
2019-01-14T23:44:14.556Z,18.62
2019-01-14T23:46:48.449Z,18.02
2019-01-14T23:49:20.719Z,17.25
2019-01-14T23:51:53.602Z,17.65
2019-01-14T23:54:25.751Z,16.48
2019-01-14T23:56:58.002Z,16.17
2019-01-14T23:59:30.117Z,17.90
